Time;durP1;ratioP1;P1;durP2;ratioP2;P2;SDS_P1;SDS_P2;PMS_P1;PMS_P2;Temp;Humidity;BMP_temperature;BMP_pressure;BME280_temperature;BME280_humidity;BME280_pressure;Samples;Min_cycle;Max_cycle;Signal;HPM_P1;HPM_P2
2021/12/20 00:00:15;;;;;;;25.52;4.70;;;7.00;99.90;;;;;;5098278;28;20397;-64
2021/12/20 00:02:42;;;;;;;31.60;5.75;;;7.10;99.90;;;;;;5097235;28;20657;-64
2021/12/20 00:05:08;;;;;;;32.13;4.78;;;7.00;99.90;;;;;;5095593;28;20122;-64
2021/12/20 00:07:34;;;;;;;22.65;3.30;;;7.00;99.90;;;;;;5098279;28;20543;-64
2021/12/20 00:10:00;;;;;;;30.85;4.38;;;7.00;99.90;;;;;;5097769;28;20043;-64
2021/12/20 00:12:26;;;;;;;29.67;4.00;;;7.00;99.90;;;;;;5096810;28;20040;-64
2021/12/20 00:14:51;;;;;;;30.98;5.10;;;7.00;99.90;;;;;;5093792;28;20036;-64
2021/12/20 00:17:17;;;;;;;32.58;4.25;;;7.00;99.90;;;;;;5095679;28;20076;-64
2021/12/20 00:19:42;;;;;;;25.90;4.75;;;7.00;99.90;;;;;;5095828;28;20067;-64
2021/12/20 00:22:08;;;;;;;34.92;4.60;;;7.00;99.90;;;;;;5097317;28;20089;-64
2021/12/20 00:24:34;;;;;;;32.47;4.82;;;7.00;99.90;;;;;;5096685;28;20043;-63
2021/12/20 00:27:01;;;;;;;30.73;5.13;;;7.00;99.90;;;;;;5098705;28;20043;-64
2021/12/20 00:29:27;;;;;;;40.45;5.35;;;7.00;99.90;;;;;;5096218;28;20398;-64
2021/12/20 00:31:53;;;;;;;26.60;4.47;;;6.90;99.90;;;;;;5095684;28;20040;-64
2021/12/20 00:34:18;;;;;;;25.15;4.25;;;6.90;99.90;;;;;;5096054;28;20040;-64
2021/12/20 00:36:44;;;;;;;29.13;4.53;;;6.90;99.90;;;;;;5095187;28;20497;-64
2021/12/20 00:41:54;;;;;;;34.42;5.35;;;6.90;99.90;;;;;;5097481;28;20059;-64
2021/12/20 00:44:20;;;;;;;29.25;4.22;;;6.90;99.90;;;;;;5096825;28;20044;-64
2021/12/20 00:46:45;;;;;;;31.48;5.00;;;6.90;99.90;;;;;;5098494;28;20040;-63
2021/12/20 00:49:11;;;;;;;26.52;3.88;;;6.90;99.90;;;;;;5101353;27;20042;-63
2021/12/20 00:51:37;;;;;;;33.92;4.53;;;6.90;99.90;;;;;;5077514;28;20048;-63
2021/12/20 00:54:02;;;;;;;31.60;4.32;;;6.90;99.90;;;;;;5100403;27;20505;-63
2021/12/20 00:56:28;;;;;;;24.10;4.50;;;6.90;99.90;;;;;;5100401;27;20035;-63
2021/12/20 00:58:54;;;;;;;30.50;5.03;;;6.90;99.90;;;;;;5100393;27;20046;-63
2021/12/20 01:01:19;;;;;;;28.17;4.80;;;6.90;99.90;;;;;;5099784;27;20043;-63
2021/12/20 01:03:45;;;;;;;28.85;4.70;;;6.90;99.90;;;;;;5101563;27;20095;-63
2021/12/20 01:06:10;;;;;;;35.67;5.10;;;6.90;99.90;;;;;;5130796;27;20043;-63
2021/12/20 01:08:39;;;;;;;25.80;4.50;;;6.90;99.90;;;;;;5099929;28;20050;-63
2021/12/20 01:11:05;;;;;;;28.40;5.95;;;6.80;99.90;;;;;;5099468;27;20059;-63
2021/12/20 01:13:32;;;;;;;29.58;4.47;;;6.90;99.90;;;;;;5098589;28;20036;-64
2021/12/20 01:16:01;;;;;;;37.03;4.80;;;6.90;99.90;;;;;;5100638;27;20035;-63
2021/12/20 01:18:27;;;;;;;25.25;4.10;;;6.80;99.90;;;;;;5098535;27;20216;-63
2021/12/20 01:20:53;;;;;;;21.48;3.55;;;6.80;99.90;;;;;;5096868;28;20043;-63
2021/12/20 01:23:19;;;;;;;28.88;4.93;;;6.80;99.90;;;;;;5098795;27;20058;-63
2021/12/20 01:25:45;;;;;;;34.05;4.88;;;6.80;99.90;;;;;;5101889;27;20054;-63
2021/12/20 01:28:11;;;;;;;28.75;3.88;;;6.80;99.90;;;;;;5133281;27;20039;-63
2021/12/20 01:30:39;;;;;;;18.63;2.83;;;6.80;99.90;;;;;;5101639;27;20051;-63
2021/12/20 01:33:09;;;;;;;25.30;5.32;;;6.80;99.90;;;;;;5098686;27;20047;-64
2021/12/20 01:35:35;;;;;;;23.33;3.92;;;6.70;99.90;;;;;;5100401;27;20071;-64
2021/12/20 01:38:02;;;;;;;23.23;3.28;;;6.70;99.90;;;;;;5099570;28;20088;-64
2021/12/20 01:40:28;;;;;;;22.58;3.25;;;6.70;99.90;;;;;;5103822;27;20063;-63
2021/12/20 01:42:56;;;;;;;26.75;3.50;;;6.70;99.90;;;;;;5100261;27;20035;-63
2021/12/20 01:45:23;;;;;;;24.42;4.65;;;6.70;99.90;;;;;;5099225;27;20126;-63
2021/12/20 01:48:00;;;;;;;27.75;3.72;;;6.70;99.90;;;;;;5098256;27;20051;-63
2021/12/20 01:53:23;;;;;;;21.00;2.95;;;6.60;99.90;;;;;;5062825;27;20596;-63
2021/12/20 01:55:50;;;;;;;26.85;3.47;;;6.60;99.90;;;;;;5128850;27;20076;-63
2021/12/20 01:58:16;;;;;;;21.85;3.65;;;6.60;99.90;;;;;;5101497;27;20687;-63
2021/12/20 02:01:01;;;;;;;24.38;3.65;;;6.60;99.90;;;;;;5098978;27;20039;-63
2021/12/20 02:03:28;;;;;;;22.27;3.35;;;6.60;99.90;;;;;;5099271;27;20047;-63
2021/12/20 02:05:55;;;;;;;25.08;3.15;;;6.60;99.90;;;;;;5097130;27;20044;-63
2021/12/20 02:08:24;;;;;;;19.35;3.42;;;6.60;99.90;;;;;;5098395;27;20048;-63
2021/12/20 02:10:54;;;;;;;19.33;2.60;;;6.50;99.90;;;;;;5099515;27;20486;-63
2021/12/20 02:13:20;;;;;;;18.35;3.67;;;6.50;99.90;;;;;;5099292;27;20058;-63
2021/12/20 02:15:46;;;;;;;26.58;3.95;;;6.50;99.90;;;;;;5129538;27;20075;-63
2021/12/20 02:18:12;;;;;;;21.55;4.03;;;6.50;99.90;;;;;;5095466;28;20530;-63
2021/12/20 02:20:38;;;;;;;21.13;3.42;;;6.50;99.90;;;;;;5129603;27;20558;-63
2021/12/20 02:23:05;;;;;;;21.27;2.83;;;6.50;99.90;;;;;;5096947;27;20075;-63
2021/12/20 02:25:32;;;;;;;28.58;4.03;;;6.50;99.90;;;;;;5097102;27;20044;-63
2021/12/20 02:28:10;;;;;;;17.67;2.38;;;6.50;99.90;;;;;;5100411;27;20031;-63
2021/12/20 02:30:43;;;;;;;14.80;2.33;;;6.50;99.90;;;;;;5099457;27;20044;-63
2021/12/20 02:38:37;;;;;;;25.33;4.15;;;6.40;99.90;;;;;;5101183;27;20040;-63
2021/12/20 02:41:11;;;;;;;25.60;3.05;;;6.50;99.90;;;;;;5100288;27;20043;-63
2021/12/20 02:43:42;;;;;;;16.35;2.17;;;6.50;99.90;;;;;;5098640;27;20051;-63
2021/12/20 02:46:28;;;;;;;18.05;2.45;;;6.40;99.90;;;;;;5098458;28;20043;-63
2021/12/20 02:48:55;;;;;;;17.85;2.40;;;6.40;99.90;;;;;;5099086;27;21875;-63
2021/12/20 02:51:23;;;;;;;19.35;3.35;;;6.40;99.90;;;;;;5131963;27;20092;-63
2021/12/20 02:53:50;;;;;;;24.95;3.17;;;6.40;99.90;;;;;;5100316;27;20497;-63
2021/12/20 02:56:16;;;;;;;16.73;2.83;;;6.40;99.90;;;;;;5100911;28;20031;-63
2021/12/20 02:58:41;;;;;;;15.57;2.28;;;6.30;99.90;;;;;;5101739;27;20546;-63
2021/12/20 03:01:07;;;;;;;21.02;2.25;;;6.30;99.90;;;;;;5096865;28;20439;-63
2021/12/20 03:03:33;;;;;;;16.02;2.03;;;6.20;99.90;;;;;;5099818;28;20035;-63
2021/12/20 03:05:58;;;;;;;14.60;2.22;;;6.30;99.90;;;;;;5107728;27;20173;-63
2021/12/20 03:08:24;;;;;;;17.35;2.47;;;6.20;99.90;;;;;;5098845;27;20042;-63
2021/12/20 03:10:50;;;;;;;17.48;1.83;;;6.20;99.90;;;;;;5118783;27;20043;-63
2021/12/20 03:13:16;;;;;;;13.73;2.22;;;6.20;99.90;;;;;;5099731;27;20508;-63
2021/12/20 03:15:41;;;;;;;13.90;1.92;;;6.30;99.90;;;;;;5130160;27;20046;-63
2021/12/20 03:18:07;;;;;;;9.20;1.40;;;6.30;99.90;;;;;;5097818;27;20036;-63
2021/12/20 03:20:33;;;;;;;13.98;1.80;;;6.30;99.90;;;;;;5098165;27;20079;-63
2021/12/20 03:22:59;;;;;;;18.65;2.20;;;6.30;99.90;;;;;;5101209;27;20035;-63
2021/12/20 03:25:25;;;;;;;10.95;1.30;;;6.30;99.90;;;;;;5096478;27;20043;-63
2021/12/20 03:27:51;;;;;;;18.08;1.80;;;6.30;99.90;;;;;;5097909;28;20147;-63
2021/12/20 03:30:16;;;;;;;10.82;1.50;;;6.30;99.90;;;;;;5097455;28;20043;-63
2021/12/20 03:32:42;;;;;;;13.32;1.80;;;6.30;99.90;;;;;;5097923;28;20114;-63
2021/12/20 03:35:09;;;;;;;9.55;0.90;;;6.30;99.90;;;;;;5129891;27;20040;-63
2021/12/20 03:37:35;;;;;;;9.13;1.15;;;6.30;99.90;;;;;;5099304;27;20501;-63
2021/12/20 03:40:01;;;;;;;9.63;1.73;;;6.30;99.90;;;;;;5097873;28;20119;-63
2021/12/20 03:42:28;;;;;;;15.15;1.92;;;6.30;99.90;;;;;;5101090;28;20403;-63
2021/12/20 03:44:54;;;;;;;18.70;2.05;;;6.30;99.90;;;;;;5096431;27;20402;-63
2021/12/20 03:47:20;;;;;;;9.98;1.55;;;6.30;99.90;;;;;;5105859;27;20040;-63
2021/12/20 03:49:45;;;;;;;18.40;2.50;;;6.30;99.90;;;;;;5097884;28;20047;-63
2021/12/20 03:52:11;;;;;;;14.43;2.58;;;6.30;99.90;;;;;;5129684;27;20056;-63
2021/12/20 03:54:37;;;;;;;16.27;2.70;;;6.30;99.90;;;;;;5100730;28;20036;-63
2021/12/20 03:57:04;;;;;;;16.92;1.60;;;6.30;99.90;;;;;;5093288;28;20044;-63
2021/12/20 03:59:30;;;;;;;10.43;1.48;;;6.30;99.90;;;;;;5095250;28;20047;-63
2021/12/20 04:01:58;;;;;;;12.18;2.22;;;6.30;99.90;;;;;;5097782;28;20441;-63
2021/12/20 04:04:24;;;;;;;24.98;2.65;;;6.40;99.90;;;;;;5101840;28;20077;-63
2021/12/20 04:06:50;;;;;;;20.15;2.42;;;6.30;99.90;;;;;;5127912;27;20988;-63
2021/12/20 04:09:16;;;;;;;12.27;1.77;;;6.30;99.90;;;;;;5100326;28;20090;-63
2021/12/20 04:11:41;;;;;;;11.93;3.00;;;6.30;99.90;;;;;;5130425;27;20084;-63
2021/12/20 04:14:07;;;;;;;18.63;2.17;;;6.30;99.90;;;;;;5127802;27;20072;-63
2021/12/20 04:16:34;;;;;;;13.38;2.17;;;6.30;99.90;;;;;;5127623;27;20039;-63
2021/12/20 04:18:59;;;;;;;11.80;2.08;;;6.30;99.90;;;;;;5099823;28;20066;-63
2021/12/20 04:21:25;;;;;;;18.60;2.90;;;6.30;99.90;;;;;;5097759;28;20075;-63
2021/12/20 04:23:51;;;;;;;17.35;1.75;;;6.20;99.90;;;;;;5112655;27;20099;-63
2021/12/20 04:26:16;;;;;;;12.70;1.70;;;6.20;99.90;;;;;;5099183;28;20401;-63
2021/12/20 04:28:42;;;;;;;11.20;1.40;;;6.20;99.90;;;;;;5099944;28;20043;-63
2021/12/20 04:31:08;;;;;;;17.50;2.30;;;6.20;99.90;;;;;;5103333;27;20122;-63
2021/12/20 04:33:34;;;;;;;16.13;2.10;;;6.10;99.90;;;;;;5102459;27;20031;-63
2021/12/20 04:36:00;;;;;;;17.42;1.95;;;6.10;99.90;;;;;;5100733;27;20529;-63
2021/12/20 04:38:28;;;;;;;13.82;2.63;;;6.10;99.90;;;;;;5098319;27;20042;-63
2021/12/20 04:40:54;;;;;;;19.42;3.72;;;6.10;99.90;;;;;;5101652;27;20074;-63
2021/12/20 04:43:19;;;;;;;18.55;2.13;;;6.00;99.90;;;;;;5100115;27;20438;-63
2021/12/20 04:45:45;;;;;;;14.05;1.83;;;6.00;99.90;;;;;;5097267;27;20050;-63
2021/12/20 04:48:11;;;;;;;15.05;1.90;;;5.90;99.90;;;;;;5099195;27;20689;-63
2021/12/20 04:50:38;;;;;;;11.00;1.90;;;6.00;99.90;;;;;;5083660;28;20043;-63
2021/12/20 04:53:05;;;;;;;18.13;3.95;;;5.90;99.90;;;;;;5102166;27;20122;-63
2021/12/20 04:55:32;;;;;;;11.27;2.50;;;5.90;99.90;;;;;;5104046;27;20515;-63
2021/12/20 04:57:59;;;;;;;14.23;1.63;;;5.80;99.90;;;;;;5102482;27;20035;-63
2021/12/20 05:00:27;;;;;;;15.75;2.05;;;5.70;99.90;;;;;;5099001;27;20074;-63
2021/12/20 05:02:53;;;;;;;11.30;1.58;;;5.60;99.90;;;;;;5101394;28;20032;-63
2021/12/20 05:05:21;;;;;;;13.25;1.20;;;5.60;99.90;;;;;;5102752;27;20024;-63
2021/12/20 05:07:47;;;;;;;9.80;1.30;;;5.50;99.90;;;;;;5100439;27;20440;-63
2021/12/20 05:10:24;;;;;;;14.50;1.65;;;5.50;99.90;;;;;;5098820;27;20486;-63
2021/12/20 05:12:51;;;;;;;13.55;2.95;;;5.40;99.90;;;;;;5134269;27;20387;-63
2021/12/20 05:15:17;;;;;;;27.17;3.50;;;5.30;99.90;;;;;;5098965;27;20032;-63
2021/12/20 05:17:42;;;;;;;14.80;1.60;;;5.30;99.90;;;;;;5100023;27;20382;-63
2021/12/20 05:20:08;;;;;;;24.42;3.17;;;5.20;99.90;;;;;;5098762;27;20078;-63
2021/12/20 05:22:34;;;;;;;14.52;2.10;;;5.20;99.90;;;;;;5100100;27;20543;-63
2021/12/20 05:25:00;;;;;;;8.93;1.17;;;5.20;99.90;;;;;;5101776;27;20044;-63
2021/12/20 05:27:25;;;;;;;16.10;2.35;;;5.20;99.90;;;;;;5101850;27;20623;-63
2021/12/20 05:29:51;;;;;;;9.68;1.65;;;5.10;99.90;;;;;;5104013;27;20032;-63
2021/12/20 05:32:17;;;;;;;10.82;1.35;;;5.00;99.90;;;;;;5101391;27;20179;-63
2021/12/20 05:34:42;;;;;;;14.75;2.33;;;4.90;99.90;;;;;;5104269;27;20050;-63
2021/12/20 05:37:08;;;;;;;10.55;1.38;;;4.90;99.90;;;;;;5097820;27;20047;-63
2021/12/20 05:39:34;;;;;;;9.93;1.10;;;4.90;99.90;;;;;;5099146;27;20047;-63
2021/12/20 05:41:59;;;;;;;16.17;2.00;;;4.70;99.90;;;;;;5097937;27;20074;-63
2021/12/20 05:44:25;;;;;;;9.70;1.58;;;4.70;99.90;;;;;;5131246;27;20079;-63
2021/12/20 05:46:52;;;;;;;13.50;2.58;;;4.60;99.90;;;;;;5100090;27;20047;-63
2021/12/20 05:49:18;;;;;;;11.73;1.45;;;4.60;99.90;;;;;;5102588;27;20039;-63
2021/12/20 05:51:44;;;;;;;14.48;1.75;;;4.60;99.90;;;;;;5103221;27;20118;-63
2021/12/20 05:54:10;;;;;;;16.70;1.60;;;4.60;99.90;;;;;;5101244;27;20122;-63
2021/12/20 05:56:35;;;;;;;13.52;1.40;;;4.50;99.90;;;;;;5102078;28;20040;-63
2021/12/20 05:59:02;;;;;;;16.50;1.30;;;4.40;99.90;;;;;;5098086;28;20044;-63
2021/12/20 06:01:28;;;;;;;8.80;0.90;;;4.40;99.90;;;;;;5081334;28;20043;-63
2021/12/20 06:03:53;;;;;;;8.45;1.00;;;4.30;99.90;;;;;;5100202;27;20401;-63
2021/12/20 06:06:19;;;;;;;13.07;1.05;;;4.20;99.90;;;;;;5103397;27;20535;-63
2021/12/20 06:08:45;;;;;;;12.32;1.40;;;4.30;99.90;;;;;;5105890;27;20139;-63
2021/12/20 06:11:10;;;;;;;9.95;1.65;;;4.20;99.90;;;;;;5099712;27;20039;-63
2021/12/20 06:13:36;;;;;;;11.27;1.35;;;4.20;99.90;;;;;;5101065;27;20030;-63
2021/12/20 06:16:02;;;;;;;8.02;1.30;;;4.20;99.90;;;;;;5098754;27;20036;-63
2021/12/20 06:18:27;;;;;;;11.65;1.10;;;4.20;99.90;;;;;;5100480;27;20039;-63
2021/12/20 06:20:53;;;;;;;15.85;1.92;;;4.10;99.90;;;;;;5098458;27;20074;-63
2021/12/20 06:23:19;;;;;;;13.23;1.83;;;4.10;99.90;;;;;;5099184;28;20039;-63
2021/12/20 06:25:44;;;;;;;11.15;1.00;;;4.00;99.90;;;;;;5100229;27;20088;-63
2021/12/20 06:28:10;;;;;;;8.50;0.90;;;3.90;99.90;;;;;;5099853;27;20027;-63
2021/12/20 06:30:36;;;;;;;6.03;0.90;;;3.90;99.90;;;;;;5098837;27;20043;-63
2021/12/20 06:33:01;;;;;;;12.05;1.42;;;3.90;99.90;;;;;;5099607;27;20039;-63
2021/12/20 06:35:27;;;;;;;13.25;1.17;;;3.80;99.90;;;;;;5098567;27;20122;-63
2021/12/20 06:38:00;;;;;;;9.32;1.30;;;3.80;99.90;;;;;;5101674;27;20070;-63
2021/12/20 06:40:29;;;;;;;10.00;1.13;;;3.80;99.90;;;;;;5095904;28;20047;-63
2021/12/20 06:42:55;;;;;;;11.43;1.10;;;3.80;99.90;;;;;;5098370;28;20115;-63
2021/12/20 06:45:21;;;;;;;11.15;2.08;;;3.70;99.90;;;;;;5097945;27;20036;-63
2021/12/20 06:47:48;;;;;;;13.77;1.42;;;3.70;99.90;;;;;;5096992;28;20043;-63
2021/12/20 06:50:18;;;;;;;11.07;1.55;;;3.60;99.90;;;;;;5096156;27;20036;-63
2021/12/20 06:52:43;;;;;;;10.07;1.10;;;3.50;99.90;;;;;;5099224;28;20082;-63
2021/12/20 06:55:09;;;;;;;12.93;1.70;;;3.40;99.90;;;;;;5127848;27;20067;-63
2021/12/20 06:57:35;;;;;;;9.73;1.60;;;3.40;99.90;;;;;;5096912;28;20040;-63
2021/12/20 07:00:02;;;;;;;10.30;1.42;;;3.40;99.90;;;;;;5098235;28;20414;-63
2021/12/20 07:02:28;;;;;;;10.50;1.58;;;3.30;99.90;;;;;;5126064;27;20512;-63
2021/12/20 07:04:54;;;;;;;7.93;0.93;;;3.20;99.90;;;;;;5107980;27;20043;-64
2021/12/20 07:07:19;;;;;;;12.60;1.42;;;3.10;99.90;;;;;;5095783;28;20406;-64
2021/12/20 07:09:45;;;;;;;13.82;0.95;;;3.10;99.90;;;;;;5101792;27;20032;-64
2021/12/20 07:12:11;;;;;;;15.05;1.92;;;3.10;99.90;;;;;;5101293;28;20048;-64
2021/12/20 07:14:38;;;;;;;14.57;1.73;;;3.10;99.90;;;;;;5099197;28;20059;-64
2021/12/20 07:17:04;;;;;;;13.82;1.33;;;3.00;99.90;;;;;;5099089;27;20043;-64
2021/12/20 07:19:29;;;;;;;11.63;1.63;;;3.00;99.90;;;;;;5080888;28;20443;-64
2021/12/20 07:21:55;;;;;;;12.93;1.63;;;2.90;99.90;;;;;;5101376;28;20031;-64
2021/12/20 07:24:21;;;;;;;15.10;2.45;;;2.80;99.90;;;;;;5096942;28;20841;-64
2021/12/20 07:26:47;;;;;;;8.23;1.10;;;2.80;99.90;;;;;;5098642;28;20024;-64
2021/12/20 07:29:18;;;;;;;7.72;1.00;;;2.80;99.90;;;;;;5096207;28;20035;-64
2021/12/20 07:31:45;;;;;;;10.32;1.10;;;2.80;99.90;;;;;;5099876;28;20038;-64
2021/12/20 07:34:10;;;;;;;14.82;1.40;;;2.80;99.90;;;;;;5102495;28;20036;-64
2021/12/20 07:36:37;;;;;;;12.13;1.70;;;2.70;99.90;;;;;;5098684;27;20096;-64
2021/12/20 07:39:04;;;;;;;14.73;1.67;;;2.60;99.90;;;;;;5098362;28;20042;-64
2021/12/20 07:41:30;;;;;;;15.85;1.25;;;2.60;99.90;;;;;;5099756;28;20056;-64
2021/12/20 07:43:56;;;;;;;9.98;1.17;;;2.60;99.90;;;;;;5090554;28;20645;-64
2021/12/20 07:46:22;;;;;;;9.93;2.47;;;2.60;99.90;;;;;;5095892;28;20074;-64
2021/12/20 07:48:49;;;;;;;7.45;1.27;;;2.60;99.90;;;;;;5098973;28;20032;-64
2021/12/20 07:51:15;;;;;;;12.73;1.73;;;2.60;99.90;;;;;;5092720;28;20062;-64
2021/12/20 07:53:41;;;;;;;16.80;2.05;;;2.60;99.90;;;;;;5123407;27;20032;-64
2021/12/20 07:56:07;;;;;;;9.82;1.65;;;2.70;99.90;;;;;;5093823;28;20046;-64
2021/12/20 07:58:33;;;;;;;16.17;1.70;;;2.60;99.90;;;;;;5096467;28;20035;-64
2021/12/20 08:01:01;;;;;;;12.73;1.52;;;2.60;99.90;;;;;;5097564;28;20648;-64
2021/12/20 08:03:27;;;;;;;12.57;1.70;;;2.60;99.90;;;;;;5098310;27;20043;-64
2021/12/20 08:05:53;;;;;;;11.68;1.67;;;2.60;99.90;;;;;;5103213;27;20054;-64
2021/12/20 08:08:19;;;;;;;19.02;1.80;;;2.60;99.90;;;;;;5102482;27;20036;-64
2021/12/20 08:10:45;;;;;;;11.85;1.55;;;2.60;99.90;;;;;;5100224;27;22077;-64
2021/12/20 08:13:12;;;;;;;14.57;2.75;;;2.60;99.90;;;;;;5099796;27;20394;-64
2021/12/20 08:15:39;;;;;;;10.30;1.20;;;2.60;99.90;;;;;;5096437;27;20054;-64
2021/12/20 08:18:06;;;;;;;13.98;1.90;;;2.60;99.90;;;;;;5118863;27;20043;-64
2021/12/20 08:20:32;;;;;;;8.52;1.75;;;2.40;99.90;;;;;;5099268;27;20039;-64
2021/12/20 08:22:58;;;;;;;10.07;1.48;;;2.50;99.90;;;;;;5092267;27;20036;-64
2021/12/20 08:25:23;;;;;;;9.60;1.50;;;2.50;99.90;;;;;;5097953;27;20043;-64
2021/12/20 08:27:50;;;;;;;9.13;1.73;;;2.50;99.90;;;;;;5095384;27;20050;-64
2021/12/20 08:30:17;;;;;;;11.88;1.75;;;2.50;99.90;;;;;;5099411;27;20135;-64
2021/12/20 08:32:42;;;;;;;12.30;1.55;;;2.60;99.90;;;;;;5113729;27;20036;-64
2021/12/20 08:35:10;;;;;;;13.73;1.55;;;2.60;99.90;;;;;;5095962;28;20093;-64
2021/12/20 08:37:36;;;;;;;15.30;1.33;;;2.60;99.90;;;;;;5099638;27;20132;-64
2021/12/20 08:40:04;;;;;;;8.15;1.10;;;2.60;99.90;;;;;;5102133;27;20036;-64
2021/12/20 08:42:30;;;;;;;16.65;1.85;;;2.60;99.90;;;;;;5135549;27;20113;-64
2021/12/20 08:44:56;;;;;;;10.15;1.75;;;2.60;99.90;;;;;;5099041;27;20043;-64
2021/12/20 08:47:21;;;;;;;14.68;2.30;;;2.60;99.90;;;;;;5099790;28;20047;-64
2021/12/20 08:49:47;;;;;;;11.73;1.73;;;2.80;99.90;;;;;;5099684;28;20126;-64
2021/12/20 08:52:13;;;;;;;7.07;1.00;;;2.60;99.90;;;;;;5099219;27;20097;-64
2021/12/20 08:54:39;;;;;;;9.50;1.55;;;2.70;99.90;;;;;;5102413;28;20032;-64
2021/12/20 08:57:07;;;;;;;8.90;1.02;;;3.00;99.90;;;;;;5099799;28;20051;-64
2021/12/20 08:59:33;;;;;;;16.25;3.45;;;2.70;99.90;;;;;;5096344;27;20047;-64
2021/12/20 09:01:59;;;;;;;10.20;2.30;;;2.70;99.90;;;;;;5098309;27;20043;-64
2021/12/20 09:04:25;;;;;;;11.65;1.70;;;2.70;99.90;;;;;;5094686;27;20039;-64
2021/12/20 09:06:51;;;;;;;6.88;1.38;;;2.80;99.90;;;;;;5094094;27;20101;-64
2021/12/20 09:09:16;;;;;;;9.20;2.10;;;2.80;99.90;;;;;;5097152;27;20055;-64
2021/12/20 09:11:43;;;;;;;10.35;2.58;;;3.00;99.90;;;;;;5099601;27;20493;-64
2021/12/20 09:14:10;;;;;;;7.35;2.10;;;3.00;99.90;;;;;;5103111;28;20591;-64
2021/12/20 09:16:36;;;;;;;8.88;2.13;;;2.90;99.90;;;;;;5103020;28;20568;-64
2021/12/20 09:19:03;;;;;;;14.35;2.20;;;3.00;99.90;;;;;;5098405;27;20051;-64
2021/12/20 09:21:29;;;;;;;15.13;3.15;;;3.10;99.90;;;;;;5096948;28;20127;-64
2021/12/20 09:23:56;;;;;;;11.68;1.48;;;3.10;99.90;;;;;;5088203;27;20048;-64
2021/12/20 09:26:22;;;;;;;13.10;3.00;;;3.10;99.90;;;;;;5083755;27;20382;-64
2021/12/20 09:28:48;;;;;;;12.63;2.55;;;3.20;99.90;;;;;;5087942;27;20074;-64
2021/12/20 09:31:14;;;;;;;13.93;2.58;;;3.20;99.90;;;;;;5118583;27;20127;-64
2021/12/20 09:33:40;;;;;;;20.42;2.70;;;3.30;99.90;;;;;;5098109;27;20590;-64
2021/12/20 09:36:06;;;;;;;17.35;3.45;;;3.30;99.90;;;;;;5094077;28;20097;-64
2021/12/20 09:38:32;;;;;;;10.32;2.25;;;3.30;99.90;;;;;;5097503;27;20379;-64
2021/12/20 09:43:36;;;;;;;;;;;3.40;99.90;;;;;;5098574;27;20093;-64
2021/12/20 09:46:02;;;;;;;17.27;3.33;;;3.40;99.90;;;;;;5096808;27;19923;-64
2021/12/20 09:48:28;;;;;;;30.90;3.88;;;3.50;99.90;;;;;;5099196;27;20494;-64
2021/12/20 09:50:56;;;;;;;27.80;3.45;;;3.60;99.90;;;;;;5095563;27;20042;-64
2021/12/20 09:53:22;;;;;;;21.27;3.55;;;3.60;99.90;;;;;;5099409;27;20046;-64
2021/12/20 09:55:49;;;;;;;33.75;4.18;;;3.70;99.90;;;;;;5099904;28;20035;-64
2021/12/20 09:58:16;;;;;;;18.88;3.63;;;3.80;99.90;;;;;;5122110;27;20165;-64
2021/12/20 10:00:42;;;;;;;19.58;3.88;;;3.90;99.90;;;;;;5096349;27;20036;-64
2021/12/20 10:03:08;;;;;;;26.58;3.75;;;3.90;99.90;;;;;;5095375;27;20184;-64
2021/12/20 10:05:35;;;;;;;29.30;4.05;;;4.00;99.90;;;;;;5097086;28;20157;-64
2021/12/20 10:08:12;;;;;;;20.02;4.13;;;4.00;99.90;;;;;;5130526;27;20255;-64
2021/12/20 10:10:46;;;;;;;20.45;4.05;;;4.10;99.90;;;;;;5099727;28;20047;-64
2021/12/20 10:13:30;;;;;;;17.80;3.20;;;4.20;99.90;;;;;;5097056;28;20580;-64
2021/12/20 10:15:57;;;;;;;21.92;4.72;;;4.30;99.90;;;;;;5096678;28;20115;-64
2021/12/20 10:18:24;;;;;;;25.75;5.05;;;4.50;99.90;;;;;;5098979;27;20549;-64
2021/12/20 10:20:56;;;;;;;27.13;4.57;;;4.70;99.90;;;;;;5098924;27;20401;-64
2021/12/20 10:23:29;;;;;;;22.90;4.38;;;4.90;99.90;;;;;;5100471;28;20035;-64
2021/12/20 10:25:57;;;;;;;25.45;4.32;;;5.10;99.90;;;;;;5098223;27;20478;-64
2021/12/20 10:28:25;;;;;;;26.75;5.88;;;5.30;99.90;;;;;;5099871;28;20551;-65
2021/12/20 10:31:29;;;;;;;21.95;4.72;;;5.40;99.90;;;;;;5095644;28;20139;-64
2021/12/20 10:33:57;;;;;;;21.52;3.17;;;5.50;99.90;;;;;;5093732;27;20053;-63
2021/12/20 10:36:22;;;;;;;18.08;4.25;;;5.70;99.90;;;;;;5098994;28;21005;-64
2021/12/20 10:38:57;;;;;;;20.83;3.85;;;5.90;99.90;;;;;;5100707;27;20036;-64
2021/12/20 10:41:36;;;;;;;22.40;4.38;;;6.10;99.90;;;;;;5096627;27;20071;-64
2021/12/20 10:44:14;;;;;;;22.13;4.07;;;6.40;99.90;;;;;;5095157;28;20109;-64
2021/12/20 10:46:50;;;;;;;15.88;4.38;;;6.70;99.90;;;;;;5091304;27;20076;-64
2021/12/20 10:49:17;;;;;;;27.27;4.45;;;7.20;99.90;;;;;;5094525;28;20348;-64
2021/12/20 10:51:47;;;;;;;20.63;3.40;;;7.40;99.90;;;;;;5091906;27;20537;-64
2021/12/20 10:54:17;;;;;;;16.40;3.58;;;7.70;99.90;;;;;;5093414;28;20112;-64
2021/12/20 10:56:53;;;;;;;17.27;3.92;;;7.80;99.90;;;;;;5091738;28;20055;-64
2021/12/20 10:59:24;;;;;;;29.98;5.50;;;8.00;99.90;;;;;;5126033;27;20035;-64
2021/12/20 11:03:06;;;;;;;27.27;5.20;;;8.20;99.90;;;;;;5095817;27;20052;-64
2021/12/20 11:04:58;;;;;;;15.13;3.72;;;8.40;99.90;;;;;;5092752;28;20101;-64
2021/12/20 11:09:55;;;;;;;15.90;3.20;;;8.70;99.90;;;;;;5094662;28;20065;-64
2021/12/20 11:12:24;;;;;;;14.60;3.80;;;8.90;99.90;;;;;;5090247;28;20036;-65
2021/12/20 11:14:52;;;;;;;12.75;3.13;;;9.10;99.90;;;;;;5125808;27;20048;-64
2021/12/20 11:17:20;;;;;;;24.88;7.88;;;9.30;99.90;;;;;;5073893;28;20067;-65
2021/12/20 11:19:48;;;;;;;20.48;6.97;;;9.60;99.90;;;;;;5091492;28;20079;-65
2021/12/20 11:22:17;;;;;;;10.48;3.00;;;10.00;99.90;;;;;;5090259;28;20138;-64
2021/12/20 11:24:54;;;;;;;13.95;4.47;;;10.50;99.90;;;;;;5090893;27;20039;-65
2021/12/20 11:27:26;;;;;;;33.42;18.65;;;10.60;99.90;;;;;;5092788;28;20044;-65
2021/12/20 11:29:54;;;;;;;14.25;4.95;;;10.70;99.90;;;;;;5124691;27;20101;-65
2021/12/20 11:32:22;;;;;;;21.92;7.95;;;11.00;99.90;;;;;;5089499;28;20047;-64
2021/12/20 11:34:48;;;;;;;16.80;3.40;;;11.10;99.90;;;;;;5092808;27;20499;-65
2021/12/20 11:37:16;;;;;;;14.60;5.95;;;10.70;99.90;;;;;;5124285;27;20080;-65
2021/12/20 11:39:43;;;;;;;13.75;3.67;;;10.70;99.90;;;;;;5094520;28;20040;-65
2021/12/20 11:42:09;;;;;;;11.95;3.88;;;10.40;99.90;;;;;;5092765;28;20039;-65
2021/12/20 11:44:37;;;;;;;7.80;2.58;;;10.50;99.90;;;;;;5097725;27;20513;-64
2021/12/20 11:47:25;;;;;;;7.70;2.72;;;10.80;98.50;;;;;;5098735;28;20089;-65
2021/12/20 11:49:59;;;;;;;11.60;2.20;;;10.90;97.30;;;;;;5098801;28;20039;-65
2021/12/20 11:52:39;;;;;;;11.15;3.40;;;11.10;95.00;;;;;;5128047;27;20119;-65
2021/12/20 11:55:25;;;;;;;6.15;2.00;;;11.20;91.60;;;;;;5100607;28;20027;-64
2021/12/20 11:58:00;;;;;;;7.43;1.75;;;11.10;90.50;;;;;;5132970;27;20044;-65
2021/12/20 12:00:27;;;;;;;12.90;4.93;;;11.00;84.90;;;;;;5131553;27;20050;-65
2021/12/20 12:02:56;;;;;;;5.07;2.25;;;10.80;91.50;;;;;;5097335;28;20439;-65
2021/12/20 12:05:40;;;;;;;8.63;1.80;;;10.60;88.50;;;;;;5096964;28;20075;-65
2021/12/20 12:08:34;;;;;;;6.40;2.03;;;10.50;86.70;;;;;;5100975;28;20040;-65
2021/12/20 12:11:09;;;;;;;4.93;1.90;;;10.60;91.50;;;;;;5099042;28;20391;-65
2021/12/20 12:13:58;;;;;;;3.53;1.00;;;10.60;83.80;;;;;;5100563;28;20031;-65
2021/12/20 12:16:28;;;;;;;4.32;1.67;;;10.20;79.00;;;;;;5098941;28;20043;-65
2021/12/20 12:18:57;;;;;;;5.22;1.40;;;10.00;89.80;;;;;;5115964;28;20057;-65
2021/12/20 12:21:32;;;;;;;4.55;2.10;;;10.00;90.30;;;;;;5129771;27;20039;-65
2021/12/20 12:23:59;;;;;;;4.03;1.00;;;9.90;89.10;;;;;;5100549;28;20062;-65
2021/12/20 12:26:32;;;;;;;4.72;1.50;;;9.80;90.00;;;;;;5102912;28;20043;-65
2021/12/20 12:28:58;;;;;;;4.30;0.98;;;9.80;92.40;;;;;;5099738;28;20035;-65
2021/12/20 12:31:26;;;;;;;3.30;1.15;;;9.70;90.60;;;;;;5101974;28;20036;-65
2021/12/20 12:34:11;;;;;;;4.30;2.33;;;9.70;92.20;;;;;;5099967;28;20489;-65
2021/12/20 12:36:40;;;;;;;4.90;0.80;;;9.60;83.00;;;;;;5097765;28;20120;-64
2021/12/20 12:39:24;;;;;;;6.40;1.73;;;9.50;90.20;;;;;;5100076;28;20046;-65
2021/12/20 12:41:56;;;;;;;6.82;1.10;;;9.40;84.70;;;;;;5100299;28;20052;-65
2021/12/20 12:44:31;;;;;;;5.63;1.58;;;9.30;90.80;;;;;;5095134;28;20051;-65
2021/12/20 12:47:03;;;;;;;4.28;0.98;;;9.20;82.80;;;;;;5096249;28;20492;-65
2021/12/20 12:49:31;;;;;;;4.90;1.00;;;9.00;90.40;;;;;;5095850;28;20043;-65
2021/12/20 12:52:05;;;;;;;3.80;1.25;;;8.80;91.20;;;;;;5100852;28;20046;-65
2021/12/20 12:54:33;;;;;;;11.50;4.65;;;8.70;91.20;;;;;;5098987;28;20036;-65
2021/12/20 12:57:11;;;;;;;11.95;3.80;;;8.70;92.60;;;;;;5101796;28;20070;-65
2021/12/20 12:59:56;;;;;;;7.05;2.17;;;8.60;91.30;;;;;;5098432;28;20043;-65
2021/12/20 13:02:40;;;;;;;8.70;3.35;;;8.50;92.20;;;;;;5132271;27;20097;-65
2021/12/20 13:05:21;;;;;;;5.63;1.73;;;8.40;94.50;;;;;;5099936;28;20108;-64
2021/12/20 13:07:50;;;;;;;10.65;2.83;;;8.30;92.20;;;;;;5135052;27;20052;-65